sensor_id;sensor_type;location;lat;lon;timestamp;P1;durP1;ratioP1;P2;durP2;ratioP2
52858;SDS011;38721;53.098;6.596;2022-09-12T00:00:12;16.63;;;13.85;;
52858;SDS011;38721;53.098;6.596;2022-09-12T00:02:39;13.30;;;11.52;;
52858;SDS011;38721;53.098;6.596;2022-09-12T00:05:05;11.02;;;9.95;;
52858;SDS011;38721;53.098;6.596;2022-09-12T00:07:32;15.13;;;13.50;;
52858;SDS011;38721;53.098;6.596;2022-09-12T00:09:58;12.07;;;10.52;;
52858;SDS011;38721;53.098;6.596;2022-09-12T00:12:23;12.02;;;10.82;;
52858;SDS011;38721;53.098;6.596;2022-09-12T00:14:49;13.20;;;11.93;;
52858;SDS011;38721;53.098;6.596;2022-09-12T00:17:15;12.23;;;11.02;;
52858;SDS011;38721;53.098;6.596;2022-09-12T00:19:41;9.80;;;8.80;;
52858;SDS011;38721;53.098;6.596;2022-09-12T00:22:06;13.35;;;11.43;;
52858;SDS011;38721;53.098;6.596;2022-09-12T00:24:32;12.13;;;10.73;;
52858;SDS011;38721;53.098;6.596;2022-09-12T00:26:58;11.38;;;10.27;;
52858;SDS011;38721;53.098;6.596;2022-09-12T00:29:24;12.02;;;10.60;;
52858;SDS011;38721;53.098;6.596;2022-09-12T00:31:50;11.05;;;9.95;;
52858;SDS011;38721;53.098;6.596;2022-09-12T00:34:15;9.93;;;9.02;;
52858;SDS011;38721;53.098;6.596;2022-09-12T00:36:41;10.90;;;9.82;;
52858;SDS011;38721;53.098;6.596;2022-09-12T00:39:07;10.55;;;9.55;;
52858;SDS011;38721;53.098;6.596;2022-09-12T00:41:34;13.35;;;12.02;;
52858;SDS011;38721;53.098;6.596;2022-09-12T00:44:38;12.85;;;11.50;;
52858;SDS011;38721;53.098;6.596;2022-09-12T00:52:18;12.48;;;10.48;;
52858;SDS011;38721;53.098;6.596;2022-09-12T00:55:11;11.55;;;10.38;;
52858;SDS011;38721;53.098;6.596;2022-09-12T00:57:42;13.13;;;11.82;;
52858;SDS011;38721;53.098;6.596;2022-09-12T01:00:15;11.68;;;10.48;;
52858;SDS011;38721;53.098;6.596;2022-09-12T01:02:44;13.95;;;11.68;;
52858;SDS011;38721;53.098;6.596;2022-09-12T01:05:14;14.32;;;12.85;;
52858;SDS011;38721;53.098;6.596;2022-09-12T01:07:41;9.50;;;8.55;;
52858;SDS011;38721;53.098;6.596;2022-09-12T01:10:08;11.25;;;10.15;;
52858;SDS011;38721;53.098;6.596;2022-09-12T01:12:34;13.07;;;11.48;;
52858;SDS011;38721;53.098;6.596;2022-09-12T01:15:03;13.93;;;11.85;;
52858;SDS011;38721;53.098;6.596;2022-09-12T01:17:36;13.43;;;11.40;;
52858;SDS011;38721;53.098;6.596;2022-09-12T01:34:04;16.10;;;14.40;;
52858;SDS011;38721;53.098;6.596;2022-09-12T01:36:51;13.75;;;12.27;;
52858;SDS011;38721;53.098;6.596;2022-09-12T01:42:24;14.68;;;13.18;;
52858;SDS011;38721;53.098;6.596;2022-09-12T01:50:17;15.43;;;13.82;;
52858;SDS011;38721;53.098;6.596;2022-09-12T01:52:55;17.92;;;15.98;;
52858;SDS011;38721;53.098;6.596;2022-09-12T01:55:50;16.05;;;14.45;;
52858;SDS011;38721;53.098;6.596;2022-09-12T01:58:26;14.27;;;12.77;;
52858;SDS011;38721;53.098;6.596;2022-09-12T02:03:31;13.52;;;12.13;;
52858;SDS011;38721;53.098;6.596;2022-09-12T02:09:17;15.15;;;13.60;;
52858;SDS011;38721;53.098;6.596;2022-09-12T02:11:50;15.35;;;13.85;;
52858;SDS011;38721;53.098;6.596;2022-09-12T02:14:22;104.60;;;18.25;;
52858;SDS011;38721;53.098;6.596;2022-09-12T02:16:55;82.18;;;17.20;;
52858;SDS011;38721;53.098;6.596;2022-09-12T02:19:28;17.13;;;15.43;;
52858;SDS011;38721;53.098;6.596;2022-09-12T02:22:00;17.63;;;15.73;;
52858;SDS011;38721;53.098;6.596;2022-09-12T02:24:29;18.30;;;15.95;;
52858;SDS011;38721;53.098;6.596;2022-09-12T02:27:02;19.33;;;16.90;;
52858;SDS011;38721;53.098;6.596;2022-09-12T02:29:32;17.55;;;15.73;;
52858;SDS011;38721;53.098;6.596;2022-09-12T02:31:58;17.23;;;15.20;;
52858;SDS011;38721;53.098;6.596;2022-09-12T02:34:40;18.30;;;15.30;;
52858;SDS011;38721;53.098;6.596;2022-09-12T02:40:22;99.03;;;21.90;;
52858;SDS011;38721;53.098;6.596;2022-09-12T02:42:48;287.05;;;26.85;;
52858;SDS011;38721;53.098;6.596;2022-09-12T02:45:17;18.80;;;13.70;;
52858;SDS011;38721;53.098;6.596;2022-09-12T02:47:45;81.40;;;19.88;;
52858;SDS011;38721;53.098;6.596;2022-09-12T02:50:17;21.15;;;18.05;;
52858;SDS011;38721;53.098;6.596;2022-09-12T02:52:43;23.52;;;19.70;;
52858;SDS011;38721;53.098;6.596;2022-09-12T02:55:10;23.30;;;16.63;;
52858;SDS011;38721;53.098;6.596;2022-09-12T02:57:37;24.13;;;20.00;;
52858;SDS011;38721;53.098;6.596;2022-09-12T03:00:03;26.35;;;20.80;;
52858;SDS011;38721;53.098;6.596;2022-09-12T03:05:18;25.58;;;21.25;;
52858;SDS011;38721;53.098;6.596;2022-09-12T03:10:50;28.15;;;23.63;;
52858;SDS011;38721;53.098;6.596;2022-09-12T03:21:36;31.58;;;24.15;;
52858;SDS011;38721;53.098;6.596;2022-09-12T03:32:04;33.60;;;25.20;;
52858;SDS011;38721;53.098;6.596;2022-09-12T03:34:31;34.42;;;26.20;;
52858;SDS011;38721;53.098;6.596;2022-09-12T03:36:57;35.95;;;28.73;;
52858;SDS011;38721;53.098;6.596;2022-09-12T03:39:23;38.42;;;28.13;;
52858;SDS011;38721;53.098;6.596;2022-09-12T03:41:50;38.58;;;27.55;;
52858;SDS011;38721;53.098;6.596;2022-09-12T03:44:17;44.30;;;30.30;;
52858;SDS011;38721;53.098;6.596;2022-09-12T03:46:43;40.42;;;29.55;;
52858;SDS011;38721;53.098;6.596;2022-09-12T03:49:09;43.35;;;29.48;;
52858;SDS011;38721;53.098;6.596;2022-09-12T03:51:36;44.08;;;29.75;;
52858;SDS011;38721;53.098;6.596;2022-09-12T03:54:05;41.08;;;28.05;;
52858;SDS011;38721;53.098;6.596;2022-09-12T03:56:33;37.80;;;28.25;;
52858;SDS011;38721;53.098;6.596;2022-09-12T03:59:04;41.08;;;30.27;;
52858;SDS011;38721;53.098;6.596;2022-09-12T04:01:30;39.53;;;28.63;;
52858;SDS011;38721;53.098;6.596;2022-09-12T04:03:56;40.63;;;28.67;;
52858;SDS011;38721;53.098;6.596;2022-09-12T04:06:22;40.08;;;29.63;;
52858;SDS011;38721;53.098;6.596;2022-09-12T04:08:51;39.05;;;27.45;;
52858;SDS011;38721;53.098;6.596;2022-09-12T04:11:19;43.97;;;30.13;;
52858;SDS011;38721;53.098;6.596;2022-09-12T04:13:46;40.45;;;28.80;;
52858;SDS011;38721;53.098;6.596;2022-09-12T04:16:13;45.42;;;31.25;;
52858;SDS011;38721;53.098;6.596;2022-09-12T04:18:40;36.20;;;24.60;;
52858;SDS011;38721;53.098;6.596;2022-09-12T04:21:10;45.13;;;31.13;;
52858;SDS011;38721;53.098;6.596;2022-09-12T04:23:40;46.25;;;32.47;;
52858;SDS011;38721;53.098;6.596;2022-09-12T04:26:06;36.97;;;27.13;;
52858;SDS011;38721;53.098;6.596;2022-09-12T04:28:33;38.17;;;28.08;;
52858;SDS011;38721;53.098;6.596;2022-09-12T04:31:04;45.35;;;29.88;;
52858;SDS011;38721;53.098;6.596;2022-09-12T04:33:35;43.97;;;28.45;;
52858;SDS011;38721;53.098;6.596;2022-09-12T04:36:08;42.45;;;28.10;;
52858;SDS011;38721;53.098;6.596;2022-09-12T04:38:35;42.83;;;29.90;;
52858;SDS011;38721;53.098;6.596;2022-09-12T04:41:11;44.92;;;30.08;;
52858;SDS011;38721;53.098;6.596;2022-09-12T04:43:39;39.75;;;27.33;;
52858;SDS011;38721;53.098;6.596;2022-09-12T04:46:05;33.28;;;24.33;;
52858;SDS011;38721;53.098;6.596;2022-09-12T04:48:32;36.45;;;25.67;;
52858;SDS011;38721;53.098;6.596;2022-09-12T04:51:11;38.60;;;27.60;;
52858;SDS011;38721;53.098;6.596;2022-09-12T04:53:40;35.33;;;23.10;;
52858;SDS011;38721;53.098;6.596;2022-09-12T04:56:07;39.40;;;26.20;;
52858;SDS011;38721;53.098;6.596;2022-09-12T04:58:34;36.90;;;24.40;;
52858;SDS011;38721;53.098;6.596;2022-09-12T05:01:04;36.25;;;25.88;;
52858;SDS011;38721;53.098;6.596;2022-09-12T05:03:31;37.25;;;24.95;;
52858;SDS011;38721;53.098;6.596;2022-09-12T05:06:03;36.38;;;24.80;;
52858;SDS011;38721;53.098;6.596;2022-09-12T05:08:30;39.88;;;26.10;;
52858;SDS011;38721;53.098;6.596;2022-09-12T05:11:00;36.53;;;25.77;;
52858;SDS011;38721;53.098;6.596;2022-09-12T05:13:31;37.80;;;26.02;;
52858;SDS011;38721;53.098;6.596;2022-09-12T05:15:58;42.83;;;27.13;;
52858;SDS011;38721;53.098;6.596;2022-09-12T05:18:25;36.85;;;25.88;;
52858;SDS011;38721;53.098;6.596;2022-09-12T05:20:54;39.25;;;26.58;;
52858;SDS011;38721;53.098;6.596;2022-09-12T05:23:20;41.95;;;27.30;;
52858;SDS011;38721;53.098;6.596;2022-09-12T05:25:52;40.63;;;27.30;;
52858;SDS011;38721;53.098;6.596;2022-09-12T05:28:21;42.35;;;28.70;;
52858;SDS011;38721;53.098;6.596;2022-09-12T05:30:58;40.03;;;27.67;;
52858;SDS011;38721;53.098;6.596;2022-09-12T05:33:29;42.78;;;27.73;;
52858;SDS011;38721;53.098;6.596;2022-09-12T05:35:55;41.72;;;28.98;;
52858;SDS011;38721;53.098;6.596;2022-09-12T05:38:21;40.83;;;26.95;;
52858;SDS011;38721;53.098;6.596;2022-09-12T05:40:49;41.00;;;26.55;;
52858;SDS011;38721;53.098;6.596;2022-09-12T05:43:15;42.22;;;27.20;;
52858;SDS011;38721;53.098;6.596;2022-09-12T05:45:41;40.22;;;26.90;;
52858;SDS011;38721;53.098;6.596;2022-09-12T05:48:09;40.30;;;27.90;;
52858;SDS011;38721;53.098;6.596;2022-09-12T05:50:35;38.13;;;26.27;;
52858;SDS011;38721;53.098;6.596;2022-09-12T05:53:01;39.78;;;26.95;;
52858;SDS011;38721;53.098;6.596;2022-09-12T05:55:26;41.00;;;27.40;;
52858;SDS011;38721;53.098;6.596;2022-09-12T05:57:53;40.60;;;27.15;;
52858;SDS011;38721;53.098;6.596;2022-09-12T06:00:19;42.45;;;27.70;;
52858;SDS011;38721;53.098;6.596;2022-09-12T06:02:50;37.53;;;26.13;;
52858;SDS011;38721;53.098;6.596;2022-09-12T06:05:19;41.40;;;26.52;;
52858;SDS011;38721;53.098;6.596;2022-09-12T06:07:45;39.53;;;26.52;;
52858;SDS011;38721;53.098;6.596;2022-09-12T06:10:12;40.72;;;27.15;;
52858;SDS011;38721;53.098;6.596;2022-09-12T06:12:38;42.55;;;28.15;;
52858;SDS011;38721;53.098;6.596;2022-09-12T06:15:04;41.75;;;26.35;;
52858;SDS011;38721;53.098;6.596;2022-09-12T06:17:30;41.20;;;27.15;;
52858;SDS011;38721;53.098;6.596;2022-09-12T06:19:56;42.47;;;28.73;;
52858;SDS011;38721;53.098;6.596;2022-09-12T06:22:22;40.33;;;27.67;;
52858;SDS011;38721;53.098;6.596;2022-09-12T06:24:47;44.38;;;29.23;;
52858;SDS011;38721;53.098;6.596;2022-09-12T06:27:13;46.88;;;29.30;;
52858;SDS011;38721;53.098;6.596;2022-09-12T06:29:39;47.05;;;29.50;;
52858;SDS011;38721;53.098;6.596;2022-09-12T06:32:05;45.40;;;29.60;;
52858;SDS011;38721;53.098;6.596;2022-09-12T06:34:31;45.78;;;29.05;;
52858;SDS011;38721;53.098;6.596;2022-09-12T06:36:57;44.83;;;29.33;;
52858;SDS011;38721;53.098;6.596;2022-09-12T06:39:23;43.70;;;28.30;;
52858;SDS011;38721;53.098;6.596;2022-09-12T06:41:50;47.47;;;31.27;;
52858;SDS011;38721;53.098;6.596;2022-09-12T06:44:16;44.90;;;31.05;;
52858;SDS011;38721;53.098;6.596;2022-09-12T06:46:45;44.42;;;29.63;;
52858;SDS011;38721;53.098;6.596;2022-09-12T06:49:11;43.92;;;29.90;;
52858;SDS011;38721;53.098;6.596;2022-09-12T06:51:38;41.55;;;27.95;;
52858;SDS011;38721;53.098;6.596;2022-09-12T06:54:06;51.35;;;30.23;;
52858;SDS011;38721;53.098;6.596;2022-09-12T06:56:31;46.03;;;29.85;;
52858;SDS011;38721;53.098;6.596;2022-09-12T06:58:57;43.63;;;28.83;;
52858;SDS011;38721;53.098;6.596;2022-09-12T07:01:27;44.85;;;29.42;;
52858;SDS011;38721;53.098;6.596;2022-09-12T07:04:02;45.83;;;30.25;;
52858;SDS011;38721;53.098;6.596;2022-09-12T07:06:35;43.72;;;29.50;;
52858;SDS011;38721;53.098;6.596;2022-09-12T07:09:04;48.83;;;31.30;;
52858;SDS011;38721;53.098;6.596;2022-09-12T07:11:32;48.35;;;30.92;;
52858;SDS011;38721;53.098;6.596;2022-09-12T07:14:01;47.65;;;30.05;;
52858;SDS011;38721;53.098;6.596;2022-09-12T07:16:31;49.25;;;31.27;;
52858;SDS011;38721;53.098;6.596;2022-09-12T07:19:00;48.20;;;30.65;;
52858;SDS011;38721;53.098;6.596;2022-09-12T07:21:28;45.65;;;30.42;;
52858;SDS011;38721;53.098;6.596;2022-09-12T07:23:54;47.25;;;31.27;;
52858;SDS011;38721;53.098;6.596;2022-09-12T07:26:21;47.83;;;31.27;;
52858;SDS011;38721;53.098;6.596;2022-09-12T07:28:51;45.08;;;29.15;;
52858;SDS011;38721;53.098;6.596;2022-09-12T07:31:18;47.83;;;30.45;;
52858;SDS011;38721;53.098;6.596;2022-09-12T07:33:46;45.28;;;32.22;;
52858;SDS011;38721;53.098;6.596;2022-09-12T07:36:15;49.58;;;32.30;;
52858;SDS011;38721;53.098;6.596;2022-09-12T07:38:42;49.45;;;30.38;;
52858;SDS011;38721;53.098;6.596;2022-09-12T07:41:19;46.67;;;32.08;;
52858;SDS011;38721;53.098;6.596;2022-09-12T07:46:17;47.67;;;30.02;;
52858;SDS011;38721;53.098;6.596;2022-09-12T07:48:42;47.65;;;31.25;;
52858;SDS011;38721;53.098;6.596;2022-09-12T07:51:10;44.13;;;29.95;;
52858;SDS011;38721;53.098;6.596;2022-09-12T07:53:39;46.67;;;31.02;;
52858;SDS011;38721;53.098;6.596;2022-09-12T07:56:08;44.63;;;29.35;;
52858;SDS011;38721;53.098;6.596;2022-09-12T07:58:35;41.63;;;28.30;;
52858;SDS011;38721;53.098;6.596;2022-09-12T08:03:27;41.85;;;28.02;;
52858;SDS011;38721;53.098;6.596;2022-09-12T08:05:53;38.88;;;27.30;;
52858;SDS011;38721;53.098;6.596;2022-09-12T08:08:19;42.03;;;26.73;;
52858;SDS011;38721;53.098;6.596;2022-09-12T08:10:48;40.80;;;27.52;;
52858;SDS011;38721;53.098;6.596;2022-09-12T08:13:13;40.75;;;26.90;;
52858;SDS011;38721;53.098;6.596;2022-09-12T08:15:39;40.33;;;26.60;;
52858;SDS011;38721;53.098;6.596;2022-09-12T08:18:07;37.53;;;27.67;;
52858;SDS011;38721;53.098;6.596;2022-09-12T08:20:33;41.47;;;28.67;;
52858;SDS011;38721;53.098;6.596;2022-09-12T08:22:58;37.05;;;26.58;;
52858;SDS011;38721;53.098;6.596;2022-09-12T08:25:27;37.00;;;26.70;;
52858;SDS011;38721;53.098;6.596;2022-09-12T08:27:53;37.33;;;25.52;;
52858;SDS011;38721;53.098;6.596;2022-09-12T08:30:20;35.00;;;25.15;;
52858;SDS011;38721;53.098;6.596;2022-09-12T08:32:46;33.33;;;24.67;;
52858;SDS011;38721;53.098;6.596;2022-09-12T08:35:12;31.30;;;22.77;;
52858;SDS011;38721;53.098;6.596;2022-09-12T08:37:38;30.02;;;22.25;;
52858;SDS011;38721;53.098;6.596;2022-09-12T08:40:05;31.17;;;22.13;;
52858;SDS011;38721;53.098;6.596;2022-09-12T08:42:47;30.27;;;20.95;;
52858;SDS011;38721;53.098;6.596;2022-09-12T08:45:26;32.63;;;20.52;;
52858;SDS011;38721;53.098;6.596;2022-09-12T08:48:03;28.75;;;21.65;;
52858;SDS011;38721;53.098;6.596;2022-09-12T08:50:32;35.83;;;21.95;;
52858;SDS011;38721;53.098;6.596;2022-09-12T08:55:35;33.25;;;21.25;;
52858;SDS011;38721;53.098;6.596;2022-09-12T08:58:14;29.63;;;21.90;;
52858;SDS011;38721;53.098;6.596;2022-09-12T09:00:47;32.13;;;21.88;;
52858;SDS011;38721;53.098;6.596;2022-09-12T09:06:11;31.50;;;22.23;;
52858;SDS011;38721;53.098;6.596;2022-09-12T09:14:51;28.75;;;22.23;;
52858;SDS011;38721;53.098;6.596;2022-09-12T09:20:04;28.55;;;20.33;;
52858;SDS011;38721;53.098;6.596;2022-09-12T09:22:42;30.60;;;22.33;;
52858;SDS011;38721;53.098;6.596;2022-09-12T09:25:19;32.78;;;22.13;;
52858;SDS011;38721;53.098;6.596;2022-09-12T09:27:59;34.10;;;24.48;;
52858;SDS011;38721;53.098;6.596;2022-09-12T09:30:30;34.35;;;24.02;;
52858;SDS011;38721;53.098;6.596;2022-09-12T09:33:00;32.20;;;22.10;;
52858;SDS011;38721;53.098;6.596;2022-09-12T09:35:31;31.67;;;22.23;;
52858;SDS011;38721;53.098;6.596;2022-09-12T09:43:22;35.95;;;24.25;;
52858;SDS011;38721;53.098;6.596;2022-09-12T09:45:53;37.40;;;25.13;;
52858;SDS011;38721;53.098;6.596;2022-09-12T09:50:51;39.20;;;28.00;;
52858;SDS011;38721;53.098;6.596;2022-09-12T09:53:40;41.33;;;27.00;;
52858;SDS011;38721;53.098;6.596;2022-09-12T09:56:35;38.72;;;26.17;;
52858;SDS011;38721;53.098;6.596;2022-09-12T09:59:24;39.60;;;26.65;;
52858;SDS011;38721;53.098;6.596;2022-09-12T10:02:19;38.58;;;26.23;;
52858;SDS011;38721;53.098;6.596;2022-09-12T10:04:56;41.55;;;26.88;;
52858;SDS011;38721;53.098;6.596;2022-09-12T10:07:23;37.20;;;25.02;;
52858;SDS011;38721;53.098;6.596;2022-09-12T10:10:04;40.03;;;25.65;;
52858;SDS011;38721;53.098;6.596;2022-09-12T10:12:30;38.92;;;26.30;;
52858;SDS011;38721;53.098;6.596;2022-09-12T10:14:57;40.25;;;26.23;;
52858;SDS011;38721;53.098;6.596;2022-09-12T10:17:30;41.03;;;25.70;;
52858;SDS011;38721;53.098;6.596;2022-09-12T10:20:04;39.33;;;25.83;;
52858;SDS011;38721;53.098;6.596;2022-09-12T10:22:50;35.90;;;22.95;;
52858;SDS011;38721;53.098;6.596;2022-09-12T10:25:16;34.80;;;23.40;;
52858;SDS011;38721;53.098;6.596;2022-09-12T10:27:44;40.38;;;22.55;;
52858;SDS011;38721;53.098;6.596;2022-09-12T10:30:24;33.03;;;22.80;;
52858;SDS011;38721;53.098;6.596;2022-09-12T10:32:53;36.38;;;23.30;;
52858;SDS011;38721;53.098;6.596;2022-09-12T10:35:24;36.60;;;23.38;;
52858;SDS011;38721;53.098;6.596;2022-09-12T10:38:11;30.58;;;21.70;;
52858;SDS011;38721;53.098;6.596;2022-09-12T10:40:53;30.55;;;20.63;;
52858;SDS011;38721;53.098;6.596;2022-09-12T10:43:34;35.60;;;22.17;;
52858;SDS011;38721;53.098;6.596;2022-09-12T10:48:45;34.13;;;21.67;;
52858;SDS011;38721;53.098;6.596;2022-09-12T10:53:48;29.10;;;19.17;;
52858;SDS011;38721;53.098;6.596;2022-09-12T10:56:17;27.52;;;16.52;;
52858;SDS011;38721;53.098;6.596;2022-09-12T11:01:37;30.17;;;18.63;;
52858;SDS011;38721;53.098;6.596;2022-09-12T11:18:07;19.67;;;15.10;;
52858;SDS011;38721;53.098;6.596;2022-09-12T11:20:57;19.83;;;14.82;;
52858;SDS011;38721;53.098;6.596;2022-09-12T11:31:48;17.23;;;11.77;;
52858;SDS011;38721;53.098;6.596;2022-09-12T11:34:37;16.63;;;11.13;;
52858;SDS011;38721;53.098;6.596;2022-09-12T11:43:22;16.83;;;10.35;;
52858;SDS011;38721;53.098;6.596;2022-09-12T11:46:43;12.90;;;9.98;;
52858;SDS011;38721;53.098;6.596;2022-09-12T11:49:19;13.27;;;10.32;;
52858;SDS011;38721;53.098;6.596;2022-09-12T11:54:38;15.65;;;10.43;;
52858;SDS011;38721;53.098;6.596;2022-09-12T11:57:13;14.15;;;10.02;;
52858;SDS011;38721;53.098;6.596;2022-09-12T11:59:55;13.52;;;10.18;;
52858;SDS011;38721;53.098;6.596;2022-09-12T12:02:27;13.18;;;9.80;;
52858;SDS011;38721;53.098;6.596;2022-09-12T12:05:19;9.88;;;7.65;;
52858;SDS011;38721;53.098;6.596;2022-09-12T12:07:53;12.05;;;9.15;;
52858;SDS011;38721;53.098;6.596;2022-09-12T12:12:57;13.13;;;8.90;;
52858;SDS011;38721;53.098;6.596;2022-09-12T12:15:24;11.98;;;8.77;;
52858;SDS011;38721;53.098;6.596;2022-09-12T12:17:58;14.07;;;9.60;;
52858;SDS011;38721;53.098;6.596;2022-09-12T12:20:29;13.13;;;9.50;;
52858;SDS011;38721;53.098;6.596;2022-09-12T12:22:56;10.60;;;8.35;;
52858;SDS011;38721;53.098;6.596;2022-09-12T12:25:23;13.48;;;9.82;;
52858;SDS011;38721;53.098;6.596;2022-09-12T12:28:07;16.42;;;10.70;;
52858;SDS011;38721;53.098;6.596;2022-09-12T12:38:37;12.52;;;10.55;;
52858;SDS011;38721;53.098;6.596;2022-09-12T12:43:45;12.25;;;9.93;;
52858;SDS011;38721;53.098;6.596;2022-09-12T12:46:13;13.18;;;9.45;;
52858;SDS011;38721;53.098;6.596;2022-09-12T12:57:38;11.45;;;5.07;;
52858;SDS011;38721;53.098;6.596;2022-09-12T13:03:26;13.52;;;5.38;;
52858;SDS011;38721;53.098;6.596;2022-09-12T13:05:55;7.30;;;5.45;;
52858;SDS011;38721;53.098;6.596;2022-09-12T13:08:30;11.05;;;8.63;;
52858;SDS011;38721;53.098;6.596;2022-09-12T13:11:15;9.85;;;8.18;;
52858;SDS011;38721;53.098;6.596;2022-09-12T13:13:59;10.30;;;8.63;;
52858;SDS011;38721;53.098;6.596;2022-09-12T13:19:06;8.98;;;6.40;;
52858;SDS011;38721;53.098;6.596;2022-09-12T13:21:37;9.20;;;6.38;;
52858;SDS011;38721;53.098;6.596;2022-09-12T13:24:19;7.85;;;5.35;;
52858;SDS011;38721;53.098;6.596;2022-09-12T13:26:47;6.63;;;4.53;;
52858;SDS011;38721;53.098;6.596;2022-09-12T13:31:40;6.75;;;4.68;;
52858;SDS011;38721;53.098;6.596;2022-09-12T13:34:07;7.82;;;5.47;;
52858;SDS011;38721;53.098;6.596;2022-09-12T13:39:25;7.90;;;4.70;;
52858;SDS011;38721;53.098;6.596;2022-09-12T13:42:19;6.57;;;4.85;;
52858;SDS011;38721;53.098;6.596;2022-09-12T13:47:43;6.50;;;5.07;;
52858;SDS011;38721;53.098;6.596;2022-09-12T13:50:24;5.80;;;4.70;;
52858;SDS011;38721;53.098;6.596;2022-09-12T13:52:55;5.80;;;4.72;;
52858;SDS011;38721;53.098;6.596;2022-09-12T14:01:03;6.38;;;5.15;;
52858;SDS011;38721;53.098;6.596;2022-09-12T14:06:52;7.15;;;4.85;;
52858;SDS011;38721;53.098;6.596;2022-09-12T14:11:48;5.18;;;4.25;;
52858;SDS011;38721;53.098;6.596;2022-09-12T14:14:19;5.40;;;4.50;;
52858;SDS011;38721;53.098;6.596;2022-09-12T14:16:57;5.47;;;3.95;;
52858;SDS011;38721;53.098;6.596;2022-09-12T14:19:24;5.57;;;3.83;;
52858;SDS011;38721;53.098;6.596;2022-09-12T14:21:54;5.30;;;4.25;;
52858;SDS011;38721;53.098;6.596;2022-09-12T14:24:23;7.05;;;4.70;;
52858;SDS011;38721;53.098;6.596;2022-09-12T14:26:50;5.80;;;5.18;;
52858;SDS011;38721;53.098;6.596;2022-09-12T14:29:18;6.55;;;4.72;;
52858;SDS011;38721;53.098;6.596;2022-09-12T14:31:44;8.20;;;6.38;;
52858;SDS011;38721;53.098;6.596;2022-09-12T14:36:46;7.43;;;5.90;;
52858;SDS011;38721;53.098;6.596;2022-09-12T14:44:20;8.10;;;6.00;;
52858;SDS011;38721;53.098;6.596;2022-09-12T14:46:49;7.97;;;6.53;;
52858;SDS011;38721;53.098;6.596;2022-09-12T14:49:16;8.15;;;6.93;;
52858;SDS011;38721;53.098;6.596;2022-09-12T14:57:04;8.82;;;6.68;;
52858;SDS011;38721;53.098;6.596;2022-09-12T15:04:51;6.90;;;6.20;;
52858;SDS011;38721;53.098;6.596;2022-09-12T15:09:53;7.38;;;5.80;;
52858;SDS011;38721;53.098;6.596;2022-09-12T15:12:23;10.10;;;6.63;;
52858;SDS011;38721;53.098;6.596;2022-09-12T15:14:49;9.85;;;6.10;;
52858;SDS011;38721;53.098;6.596;2022-09-12T15:17:14;7.35;;;6.18;;
52858;SDS011;38721;53.098;6.596;2022-09-12T15:19:40;7.45;;;5.88;;
52858;SDS011;38721;53.098;6.596;2022-09-12T15:22:08;7.80;;;5.75;;
52858;SDS011;38721;53.098;6.596;2022-09-12T15:24:36;6.97;;;5.60;;
52858;SDS011;38721;53.098;6.596;2022-09-12T15:27:10;7.85;;;5.82;;
52858;SDS011;38721;53.098;6.596;2022-09-12T15:29:36;7.90;;;5.53;;
52858;SDS011;38721;53.098;6.596;2022-09-12T15:32:02;6.85;;;5.40;;
52858;SDS011;38721;53.098;6.596;2022-09-12T15:34:30;6.50;;;5.45;;
52858;SDS011;38721;53.098;6.596;2022-09-12T15:36:56;6.18;;;4.88;;
52858;SDS011;38721;53.098;6.596;2022-09-12T15:39:22;5.13;;;4.43;;
52858;SDS011;38721;53.098;6.596;2022-09-12T15:41:48;5.43;;;4.93;;
52858;SDS011;38721;53.098;6.596;2022-09-12T15:44:14;5.22;;;4.00;;
52858;SDS011;38721;53.098;6.596;2022-09-12T15:46:40;4.18;;;3.78;;
52858;SDS011;38721;53.098;6.596;2022-09-12T15:49:06;4.38;;;3.90;;
52858;SDS011;38721;53.098;6.596;2022-09-12T15:51:31;4.78;;;3.75;;
52858;SDS011;38721;53.098;6.596;2022-09-12T15:54:00;4.20;;;3.38;;
52858;SDS011;38721;53.098;6.596;2022-09-12T15:56:28;3.72;;;3.30;;
52858;SDS011;38721;53.098;6.596;2022-09-12T15:58:54;4.47;;;3.72;;
52858;SDS011;38721;53.098;6.596;2022-09-12T16:01:19;4.18;;;3.60;;
52858;SDS011;38721;53.098;6.596;2022-09-12T16:03:46;3.90;;;3.55;;
52858;SDS011;38721;53.098;6.596;2022-09-12T16:06:13;6.13;;;3.17;;
52858;SDS011;38721;53.098;6.596;2022-09-12T16:08:39;4.03;;;3.10;;
52858;SDS011;38721;53.098;6.596;2022-09-12T16:14:01;4.00;;;3.30;;
52858;SDS011;38721;53.098;6.596;2022-09-12T16:16:28;3.75;;;3.38;;
52858;SDS011;38721;53.098;6.596;2022-09-12T16:18:54;4.18;;;2.85;;
52858;SDS011;38721;53.098;6.596;2022-09-12T16:21:20;3.58;;;2.92;;
52858;SDS011;38721;53.098;6.596;2022-09-12T16:23:46;4.15;;;2.97;;
52858;SDS011;38721;53.098;6.596;2022-09-12T16:26:12;3.30;;;3.00;;
52858;SDS011;38721;53.098;6.596;2022-09-12T16:28:39;6.40;;;2.97;;
52858;SDS011;38721;53.098;6.596;2022-09-12T16:31:05;5.60;;;3.00;;
52858;SDS011;38721;53.098;6.596;2022-09-12T16:33:35;3.25;;;2.80;;
52858;SDS011;38721;53.098;6.596;2022-09-12T16:36:06;3.45;;;2.85;;
52858;SDS011;38721;53.098;6.596;2022-09-12T16:38:33;3.03;;;2.72;;
52858;SDS011;38721;53.098;6.596;2022-09-12T16:41:04;3.40;;;2.90;;
52858;SDS011;38721;53.098;6.596;2022-09-12T16:43:31;3.42;;;2.70;;
52858;SDS011;38721;53.098;6.596;2022-09-12T16:46:02;4.07;;;2.70;;
52858;SDS011;38721;53.098;6.596;2022-09-12T16:48:30;4.70;;;2.85;;
52858;SDS011;38721;53.098;6.596;2022-09-12T16:50:56;3.53;;;3.00;;
52858;SDS011;38721;53.098;6.596;2022-09-12T16:53:23;4.95;;;3.20;;
52858;SDS011;38721;53.098;6.596;2022-09-12T16:55:52;3.67;;;2.88;;
52858;SDS011;38721;53.098;6.596;2022-09-12T16:58:17;3.15;;;2.40;;
52858;SDS011;38721;53.098;6.596;2022-09-12T17:00:43;3.38;;;2.78;;
52858;SDS011;38721;53.098;6.596;2022-09-12T17:03:09;2.80;;;2.60;;
52858;SDS011;38721;53.098;6.596;2022-09-12T17:05:35;4.28;;;2.70;;
52858;SDS011;38721;53.098;6.596;2022-09-12T17:08:01;3.35;;;2.65;;
52858;SDS011;38721;53.098;6.596;2022-09-12T17:10:27;2.85;;;2.50;;
52858;SDS011;38721;53.098;6.596;2022-09-12T17:12:54;2.70;;;2.38;;
52858;SDS011;38721;53.098;6.596;2022-09-12T17:15:21;4.55;;;2.50;;
52858;SDS011;38721;53.098;6.596;2022-09-12T17:17:47;4.47;;;2.67;;
52858;SDS011;38721;53.098;6.596;2022-09-12T17:20:16;3.08;;;2.78;;
52858;SDS011;38721;53.098;6.596;2022-09-12T17:22:42;4.78;;;2.88;;
52858;SDS011;38721;53.098;6.596;2022-09-12T17:25:07;4.53;;;2.88;;
52858;SDS011;38721;53.098;6.596;2022-09-12T17:27:33;4.47;;;3.00;;
52858;SDS011;38721;53.098;6.596;2022-09-12T17:29:59;4.15;;;2.88;;
52858;SDS011;38721;53.098;6.596;2022-09-12T17:32:24;5.22;;;2.70;;
52858;SDS011;38721;53.098;6.596;2022-09-12T17:37:41;6.55;;;3.08;;
52858;SDS011;38721;53.098;6.596;2022-09-12T17:40:30;3.22;;;2.90;;
52858;SDS011;38721;53.098;6.596;2022-09-12T17:43:01;4.95;;;3.03;;
52858;SDS011;38721;53.098;6.596;2022-09-12T17:45:28;4.88;;;3.40;;
52858;SDS011;38721;53.098;6.596;2022-09-12T17:48:00;4.97;;;2.90;;
52858;SDS011;38721;53.098;6.596;2022-09-12T17:50:26;5.03;;;3.15;;
52858;SDS011;38721;53.098;6.596;2022-09-12T17:52:52;6.97;;;3.20;;
52858;SDS011;38721;53.098;6.596;2022-09-12T17:55:19;4.10;;;3.17;;
52858;SDS011;38721;53.098;6.596;2022-09-12T17:57:47;7.30;;;3.25;;
52858;SDS011;38721;53.098;6.596;2022-09-12T18:00:13;4.30;;;3.13;;
52858;SDS011;38721;53.098;6.596;2022-09-12T18:02:39;3.40;;;3.10;;
52858;SDS011;38721;53.098;6.596;2022-09-12T18:05:05;4.53;;;3.17;;